createdAt,value
2022-10-01T00:04:29.396Z,10.77
2022-10-01T00:09:34.055Z,10.80
2022-10-01T00:14:39.139Z,10.81
2022-10-01T00:19:40.829Z,10.85
2022-10-01T00:24:42.621Z,10.87
2022-10-01T00:29:45.200Z,10.88
2022-10-01T00:34:47.450Z,10.89
2022-10-01T00:39:49.052Z,10.87
2022-10-01T00:44:51.244Z,10.90
2022-10-01T00:50:07.996Z,10.90
2022-10-01T00:55:23.567Z,10.92
2022-10-01T01:00:25.265Z,10.99
2022-10-01T01:05:27.059Z,10.98
2022-10-01T01:10:37.436Z,10.98
2022-10-01T01:16:00.621Z,11.04
2022-10-01T01:21:13.184Z,11.10
2022-10-01T01:26:27.932Z,11.11
2022-10-01T01:31:36.228Z,11.16
2022-10-01T01:36:43.548Z,11.10
2022-10-01T01:41:51.268Z,10.95
2022-10-01T01:46:56.790Z,10.83
2022-10-01T01:52:13.545Z,10.79
2022-10-01T01:57:18.766Z,10.66
2022-10-01T02:02:26.536Z,10.60
2022-10-01T02:07:53.923Z,10.54
2022-10-01T02:13:32.895Z,10.46
2022-10-01T02:18:57.373Z,10.34
2022-10-01T02:24:02.645Z,10.25
2022-10-01T02:29:09.661Z,10.19
2022-10-01T02:34:19.967Z,10.08
2022-10-01T02:39:23.820Z,9.98
2022-10-01T02:44:38.064Z,9.99
2022-10-01T02:49:41.363Z,9.97
2022-10-01T02:54:47.033Z,9.93
2022-10-01T02:59:49.387Z,9.85
2022-10-01T03:04:51.401Z,9.79
2022-10-01T03:09:53.207Z,9.72
2022-10-01T03:14:54.864Z,9.66
2022-10-01T03:19:56.692Z,9.58
2022-10-01T03:24:58.259Z,9.58
2022-10-01T03:29:59.896Z,9.48
2022-10-01T03:35:01.790Z,9.45
2022-10-01T03:40:03.746Z,9.36
2022-10-01T03:45:05.426Z,9.31
2022-10-01T03:50:08.029Z,9.27
2022-10-01T03:55:09.638Z,9.20
2022-10-01T04:00:12.038Z,9.18
2022-10-01T04:05:14.030Z,9.18
2022-10-01T04:10:15.649Z,9.22
2022-10-01T04:15:17.233Z,9.23
2022-10-01T04:20:19.200Z,9.20
2022-10-01T04:25:20.815Z,9.21
2022-10-01T04:30:22.834Z,9.23
2022-10-01T04:35:25.496Z,9.31
2022-10-01T04:40:27.277Z,9.36
2022-10-01T04:45:28.777Z,9.35
2022-10-01T04:50:30.911Z,9.38
2022-10-01T04:55:32.448Z,9.38
2022-10-01T05:00:34.015Z,9.41
2022-10-01T05:05:35.618Z,9.45
2022-10-01T05:10:37.262Z,9.41
2022-10-01T05:15:38.871Z,9.42
2022-10-01T05:20:40.547Z,9.40
2022-10-01T05:25:42.675Z,9.42
2022-10-01T05:30:44.200Z,9.37
2022-10-01T05:35:45.795Z,9.45
2022-10-01T05:40:47.632Z,9.51
2022-10-01T05:45:51.136Z,9.51
2022-10-01T05:50:54.017Z,9.53
2022-10-01T05:55:55.528Z,9.53
2022-10-01T06:00:57.070Z,9.54
2022-10-01T06:05:58.634Z,9.52
2022-10-01T06:11:02.299Z,9.55
2022-10-01T06:16:04.054Z,9.56
2022-10-01T06:21:06.014Z,9.60
2022-10-01T06:26:08.675Z,9.62
2022-10-01T06:31:11.649Z,9.66
2022-10-01T06:36:13.192Z,9.69
2022-10-01T06:41:14.817Z,9.75
2022-10-01T06:46:16.467Z,9.76
2022-10-01T06:51:38.025Z,9.83
2022-10-01T06:56:42.827Z,9.84
2022-10-01T07:01:44.408Z,9.86
2022-10-01T07:06:45.952Z,9.89
2022-10-01T07:11:47.480Z,9.94
2022-10-01T07:16:49.057Z,10.00
2022-10-01T07:21:50.966Z,10.05
2022-10-01T07:26:55.604Z,10.20
2022-10-01T07:31:59.559Z,10.28
2022-10-01T07:37:01.517Z,10.37
2022-10-01T07:42:04.211Z,10.48
2022-10-01T07:47:05.807Z,10.54
2022-10-01T07:52:12.365Z,10.57
2022-10-01T07:57:15.290Z,10.70
2022-10-01T08:02:18.977Z,10.78
2022-10-01T08:07:21.150Z,10.82
2022-10-01T08:12:24.378Z,10.91
2022-10-01T08:17:29.394Z,11.06
2022-10-01T08:22:31.370Z,11.20
2022-10-01T08:27:32.903Z,11.31
2022-10-01T08:32:34.452Z,11.31
2022-10-01T08:37:36.206Z,11.45
2022-10-01T08:42:59.317Z,11.62
2022-10-01T08:48:09.135Z,12.00
2022-10-01T08:53:15.469Z,12.17
2022-10-01T08:58:45.832Z,12.57
2022-10-01T09:03:47.924Z,13.21
2022-10-01T09:08:57.703Z,13.29
2022-10-01T09:14:32.893Z,13.31
2022-10-01T09:19:58.958Z,13.85
2022-10-01T09:25:20.471Z,14.47
2022-10-01T09:30:24.750Z,14.42
2022-10-01T09:35:37.028Z,14.45
2022-10-01T09:40:45.883Z,15.05
2022-10-01T09:45:47.708Z,14.66
2022-10-01T09:50:58.876Z,15.30
2022-10-01T09:56:08.380Z,15.71
2022-10-01T10:01:40.044Z,15.53
2022-10-01T10:06:41.708Z,15.64
2022-10-01T10:11:44.314Z,15.85
2022-10-01T10:16:48.369Z,16.13
2022-10-01T10:21:53.525Z,15.78
2022-10-01T10:26:58.948Z,16.42
2022-10-01T10:32:07.168Z,16.75
2022-10-01T10:37:18.169Z,16.25
2022-10-01T10:42:22.265Z,16.50
2022-10-01T10:47:26.068Z,16.64
2022-10-01T10:52:30.393Z,16.93
2022-10-01T10:57:34.305Z,16.68
2022-10-01T11:02:35.881Z,16.73
2022-10-01T11:07:37.376Z,16.61
2022-10-01T11:13:18.833Z,16.21
2022-10-01T11:18:42.219Z,15.91
2022-10-01T11:24:02.136Z,15.99
2022-10-01T11:29:12.890Z,16.17
2022-10-01T11:34:50.441Z,16.41
2022-10-01T11:39:56.365Z,16.41
2022-10-01T11:45:04.645Z,16.05
2022-10-01T11:50:14.938Z,15.83
2022-10-01T11:55:46.641Z,15.57
2022-10-01T12:01:08.285Z,15.13
2022-10-01T12:06:14.643Z,13.96
2022-10-01T12:11:29.360Z,13.06
2022-10-01T12:16:40.764Z,12.91
2022-10-01T12:22:11.643Z,13.19
2022-10-01T12:27:41.990Z,13.12
2022-10-01T12:32:52.242Z,12.89
2022-10-01T12:38:25.984Z,12.68
2022-10-01T12:43:57.125Z,12.70
2022-10-01T12:49:57.112Z,12.61
2022-10-01T12:55:29.288Z,12.97
2022-10-01T13:00:40.731Z,13.44
2022-10-01T13:06:19.155Z,13.57
2022-10-01T13:12:00.734Z,13.93
2022-10-01T13:17:20.207Z,14.13
2022-10-01T13:22:33.918Z,14.28
2022-10-01T13:27:44.629Z,14.55
2022-10-01T13:32:58.000Z,14.61
2022-10-01T13:37:59.791Z,14.85
2022-10-01T13:43:23.605Z,14.98
2022-10-01T13:48:34.687Z,15.15
2022-10-01T13:53:45.029Z,15.06
2022-10-01T13:58:46.726Z,15.02
2022-10-01T14:04:06.521Z,14.93
2022-10-01T14:09:13.940Z,15.09
2022-10-01T14:14:54.190Z,15.37
2022-10-01T14:19:57.365Z,15.64
2022-10-01T14:25:29.103Z,15.37
2022-10-01T14:30:44.528Z,15.15
2022-10-01T14:36:15.331Z,14.89
2022-10-01T14:41:19.395Z,14.70
2022-10-01T14:46:21.137Z,14.25
2022-10-01T14:51:29.055Z,14.06
2022-10-01T14:56:30.755Z,14.01
2022-10-01T15:01:32.624Z,13.94
2022-10-01T15:06:42.103Z,13.97
2022-10-01T15:11:46.609Z,13.99
2022-10-01T15:16:49.289Z,13.98
2022-10-01T15:21:56.571Z,13.93
2022-10-01T15:26:58.753Z,13.90
2022-10-01T15:32:02.916Z,13.95
2022-10-01T15:37:05.287Z,13.99
2022-10-01T15:42:28.147Z,13.89
2022-10-01T15:47:37.711Z,13.71
2022-10-01T15:52:51.785Z,13.56
2022-10-01T15:58:15.575Z,13.43
2022-10-01T16:03:25.443Z,13.29
2022-10-01T16:08:34.074Z,13.11
2022-10-01T16:13:39.030Z,12.94
2022-10-01T16:18:42.094Z,12.86
2022-10-01T16:23:49.307Z,12.87
2022-10-01T16:28:56.286Z,12.92
2022-10-01T16:33:58.358Z,12.71
2022-10-01T16:39:00.179Z,12.65
2022-10-01T16:44:03.707Z,12.53
2022-10-01T16:49:14.044Z,12.43
2022-10-01T16:54:24.095Z,12.35
2022-10-01T16:59:26.074Z,12.17
2022-10-01T17:04:33.525Z,12.09
2022-10-01T17:09:35.932Z,11.99
2022-10-01T17:14:37.747Z,11.92
2022-10-01T17:19:39.368Z,11.89
2022-10-01T17:24:40.925Z,11.82
2022-10-01T17:29:42.739Z,11.77
2022-10-01T17:34:45.517Z,11.73
2022-10-01T17:39:47.183Z,11.75
2022-10-01T17:44:48.732Z,11.66
2022-10-01T17:49:50.243Z,11.61
2022-10-01T17:54:52.281Z,11.56
2022-10-01T17:59:53.872Z,11.56
2022-10-01T18:04:55.336Z,11.43
2022-10-01T18:09:56.875Z,11.30
2022-10-01T18:14:58.395Z,11.29
2022-10-01T18:20:00.103Z,11.23
2022-10-01T18:25:03.387Z,11.24
2022-10-01T18:30:05.203Z,11.22
2022-10-01T18:35:21.240Z,11.17
2022-10-01T18:40:34.600Z,11.11
2022-10-01T18:45:48.422Z,11.06
2022-10-01T18:51:09.117Z,11.07
2022-10-01T18:56:40.140Z,11.04
2022-10-01T19:01:57.139Z,11.03
2022-10-01T19:07:09.723Z,10.96
2022-10-01T19:12:43.676Z,10.85
2022-10-01T19:18:01.554Z,10.80
2022-10-01T19:23:03.049Z,10.82
2022-10-01T19:28:14.257Z,10.82
2022-10-01T19:33:20.878Z,10.87
2022-10-01T19:38:32.520Z,10.90
2022-10-01T19:43:47.782Z,10.98
2022-10-01T19:48:52.366Z,10.95
2022-10-01T19:54:00.784Z,10.92
2022-10-01T19:59:10.687Z,10.91
2022-10-01T20:04:32.379Z,10.92
2022-10-01T20:09:43.215Z,10.91
2022-10-01T20:15:08.356Z,10.94
2022-10-01T20:20:25.476Z,10.96
2022-10-01T20:26:01.359Z,10.95
2022-10-01T20:31:28.039Z,10.90
2022-10-01T20:36:48.526Z,10.86
2022-10-01T20:41:53.554Z,10.87
2022-10-01T20:47:02.195Z,10.82
2022-10-01T20:52:51.607Z,10.78
2022-10-01T20:57:59.521Z,10.83
2022-10-01T21:03:07.135Z,10.78
2022-10-01T21:08:43.418Z,10.73
2022-10-01T21:14:00.531Z,10.72
2022-10-01T21:19:17.455Z,10.78
2022-10-01T21:24:37.845Z,10.72
2022-10-01T21:30:18.616Z,10.65
2022-10-01T21:35:41.790Z,10.54
2022-10-01T21:41:14.156Z,10.41
2022-10-01T21:46:32.728Z,10.31
2022-10-01T21:51:34.570Z,10.22
2022-10-01T21:56:50.984Z,10.17
2022-10-01T22:02:05.164Z,10.11
2022-10-01T22:07:31.008Z,10.06
2022-10-01T22:12:36.865Z,10.05
2022-10-01T22:17:39.491Z,10.09
2022-10-01T22:22:42.080Z,10.11
2022-10-01T22:27:53.169Z,10.03
2022-10-01T22:33:13.202Z,10.04
2022-10-01T22:38:32.992Z,10.02
2022-10-01T22:43:34.807Z,10.04
2022-10-01T22:48:54.993Z,10.13
2022-10-01T22:54:24.006Z,10.22
2022-10-01T22:59:54.806Z,10.25
2022-10-01T23:05:11.129Z,10.23
2022-10-01T23:10:15.868Z,10.15
2022-10-01T23:15:41.213Z,10.13
2022-10-01T23:21:20.260Z,10.11
2022-10-01T23:26:35.248Z,10.16
2022-10-01T23:32:10.381Z,10.22
2022-10-01T23:37:29.334Z,10.23
2022-10-01T23:42:42.430Z,10.21
2022-10-01T23:47:57.413Z,10.16
2022-10-01T23:53:14.795Z,10.08
2022-10-01T23:58:18.648Z,10.11
